sensor_id;sensor_type;location;lat;lon;timestamp;pressure;altitude;pressure_sealevel;temperature;humidity
12973;BME280;6551;51.056;9.466;2023-04-24T00:01:00;96341.88;;;15.56;65.67
12973;BME280;6551;51.056;9.466;2023-04-24T00:03:26;96344.56;;;15.56;65.16
12973;BME280;6551;51.056;9.466;2023-04-24T00:05:54;96339.16;;;15.61;65.19
12973;BME280;6551;51.056;9.466;2023-04-24T00:08:20;96341.44;;;15.49;65.37
12973;BME280;6551;51.056;9.466;2023-04-24T00:10:48;96344.88;;;15.54;65.49
12973;BME280;6551;51.056;9.466;2023-04-24T00:13:13;96334.88;;;15.26;65.51
12973;BME280;6551;51.056;9.466;2023-04-24T00:15:39;96343.94;;;15.35;65.71
12973;BME280;6551;51.056;9.466;2023-04-24T00:18:05;96340.69;;;15.04;65.76
12973;BME280;6551;51.056;9.466;2023-04-24T00:20:31;96349.91;;;15.22;66.10
12973;BME280;6551;51.056;9.466;2023-04-24T00:23:01;96341.69;;;15.47;65.87
12973;BME280;6551;51.056;9.466;2023-04-24T00:25:28;96336.66;;;15.36;66.03
12973;BME280;6551;51.056;9.466;2023-04-24T00:27:53;96340.19;;;15.31;65.58
12973;BME280;6551;51.056;9.466;2023-04-24T00:30:19;96345.25;;;15.33;65.67
12973;BME280;6551;51.056;9.466;2023-04-24T00:32:45;96338.56;;;15.35;65.72
12973;BME280;6551;51.056;9.466;2023-04-24T00:35:10;96336.91;;;15.05;66.37
12973;BME280;6551;51.056;9.466;2023-04-24T00:37:36;96331.28;;;15.07;66.86
12973;BME280;6551;51.056;9.466;2023-04-24T00:40:03;96336.50;;;15.22;66.50
12973;BME280;6551;51.056;9.466;2023-04-24T00:42:29;96331.56;;;15.00;67.09
12973;BME280;6551;51.056;9.466;2023-04-24T00:44:56;96326.88;;;15.21;66.43
12973;BME280;6551;51.056;9.466;2023-04-24T00:47:23;96319.91;;;15.20;66.38
12973;BME280;6551;51.056;9.466;2023-04-24T00:49:52;96315.22;;;15.02;66.61
12973;BME280;6551;51.056;9.466;2023-04-24T00:52:17;96315.69;;;15.09;67.11
12973;BME280;6551;51.056;9.466;2023-04-24T00:54:46;96314.84;;;15.18;66.97
12973;BME280;6551;51.056;9.466;2023-04-24T00:57:13;96307.00;;;15.22;66.98
12973;BME280;6551;51.056;9.466;2023-04-24T00:59:41;96308.06;;;15.26;66.77
12973;BME280;6551;51.056;9.466;2023-04-24T01:02:09;96305.03;;;15.33;66.53
12973;BME280;6551;51.056;9.466;2023-04-24T01:04:38;96307.53;;;15.24;66.99
12973;BME280;6551;51.056;9.466;2023-04-24T01:07:06;96294.84;;;15.35;66.96
12973;BME280;6551;51.056;9.466;2023-04-24T01:09:40;96282.25;;;15.30;66.55
12973;BME280;6551;51.056;9.466;2023-04-24T01:12:09;96284.44;;;15.28;66.92
12973;BME280;6551;51.056;9.466;2023-04-24T01:14:37;96278.25;;;15.28;67.01
12973;BME280;6551;51.056;9.466;2023-04-24T01:17:03;96274.00;;;14.93;67.43
12973;BME280;6551;51.056;9.466;2023-04-24T01:19:29;96286.31;;;14.99;67.59
12973;BME280;6551;51.056;9.466;2023-04-24T01:21:58;96274.06;;;14.88;68.54
12973;BME280;6551;51.056;9.466;2023-04-24T01:24:27;96281.34;;;14.82;68.34
12973;BME280;6551;51.056;9.466;2023-04-24T01:26:54;96277.91;;;14.72;69.03
12973;BME280;6551;51.056;9.466;2023-04-24T01:29:20;96277.31;;;14.31;71.40
12973;BME280;6551;51.056;9.466;2023-04-24T01:31:47;96282.31;;;14.52;70.56
12973;BME280;6551;51.056;9.466;2023-04-24T01:34:13;96282.16;;;14.34;71.46
12973;BME280;6551;51.056;9.466;2023-04-24T01:36:42;96277.91;;;14.23;71.11
12973;BME280;6551;51.056;9.466;2023-04-24T01:39:09;96279.38;;;14.54;70.58
12973;BME280;6551;51.056;9.466;2023-04-24T01:41:35;96278.97;;;14.32;71.38
12973;BME280;6551;51.056;9.466;2023-04-24T01:44:01;96268.84;;;14.14;71.58
12973;BME280;6551;51.056;9.466;2023-04-24T01:46:28;96270.09;;;14.31;71.18
12973;BME280;6551;51.056;9.466;2023-04-24T01:48:56;96260.22;;;14.32;71.03
12973;BME280;6551;51.056;9.466;2023-04-24T01:51:21;96256.66;;;14.41;70.45
12973;BME280;6551;51.056;9.466;2023-04-24T01:53:47;96257.72;;;14.84;70.02
12973;BME280;6551;51.056;9.466;2023-04-24T01:56:15;96252.16;;;15.09;67.87
12973;BME280;6551;51.056;9.466;2023-04-24T01:58:43;96257.41;;;14.91;68.29
12973;BME280;6551;51.056;9.466;2023-04-24T02:01:09;96259.75;;;14.97;67.42
12973;BME280;6551;51.056;9.466;2023-04-24T02:03:41;96251.66;;;15.07;67.04
12973;BME280;6551;51.056;9.466;2023-04-24T02:06:07;96255.41;;;15.06;66.81
12973;BME280;6551;51.056;9.466;2023-04-24T02:08:33;96257.47;;;15.14;65.95
12973;BME280;6551;51.056;9.466;2023-04-24T02:11:00;96266.91;;;15.41;65.87
12973;BME280;6551;51.056;9.466;2023-04-24T02:13:27;96260.50;;;15.03;66.69
12973;BME280;6551;51.056;9.466;2023-04-24T02:15:54;96263.50;;;15.01;66.56
12973;BME280;6551;51.056;9.466;2023-04-24T02:18:20;96260.28;;;15.28;66.33
12973;BME280;6551;51.056;9.466;2023-04-24T02:20:48;96257.38;;;15.24;66.08
12973;BME280;6551;51.056;9.466;2023-04-24T02:23:13;96256.50;;;15.34;65.96
12973;BME280;6551;51.056;9.466;2023-04-24T02:25:41;96262.09;;;15.38;65.40
12973;BME280;6551;51.056;9.466;2023-04-24T02:28:08;96269.16;;;15.57;65.31
12973;BME280;6551;51.056;9.466;2023-04-24T02:30:33;96255.44;;;15.30;65.09
12973;BME280;6551;51.056;9.466;2023-04-24T02:32:59;96259.78;;;15.26;65.72
12973;BME280;6551;51.056;9.466;2023-04-24T02:35:25;96256.47;;;15.05;66.63
12973;BME280;6551;51.056;9.466;2023-04-24T02:37:51;96259.81;;;14.92;67.18
12973;BME280;6551;51.056;9.466;2023-04-24T02:40:16;96253.94;;;14.51;68.26
12973;BME280;6551;51.056;9.466;2023-04-24T02:42:42;96253.31;;;14.64;68.37
12973;BME280;6551;51.056;9.466;2023-04-24T02:45:08;96252.13;;;14.81;68.25
12973;BME280;6551;51.056;9.466;2023-04-24T02:47:34;96256.44;;;14.33;69.73
12973;BME280;6551;51.056;9.466;2023-04-24T02:50:01;96248.81;;;14.55;69.12
12973;BME280;6551;51.056;9.466;2023-04-24T02:52:29;96234.44;;;14.46;69.74
12973;BME280;6551;51.056;9.466;2023-04-24T02:54:55;96240.72;;;14.21;70.02
12973;BME280;6551;51.056;9.466;2023-04-24T02:57:20;96247.03;;;14.45;69.61
12973;BME280;6551;51.056;9.466;2023-04-24T02:59:47;96231.28;;;14.73;69.37
12973;BME280;6551;51.056;9.466;2023-04-24T03:02:13;96226.72;;;14.34;69.61
12973;BME280;6551;51.056;9.466;2023-04-24T03:04:38;96230.16;;;14.45;69.31
12973;BME280;6551;51.056;9.466;2023-04-24T03:07:05;96231.56;;;14.71;69.45
12973;BME280;6551;51.056;9.466;2023-04-24T03:09:32;96228.75;;;14.52;69.35
12973;BME280;6551;51.056;9.466;2023-04-24T03:11:59;96224.31;;;14.72;69.57
12973;BME280;6551;51.056;9.466;2023-04-24T03:14:25;96234.28;;;14.66;69.46
12973;BME280;6551;51.056;9.466;2023-04-24T03:16:51;96239.63;;;14.66;69.32
12973;BME280;6551;51.056;9.466;2023-04-24T03:19:17;96228.91;;;14.71;70.22
12973;BME280;6551;51.056;9.466;2023-04-24T03:21:42;96224.41;;;14.61;71.28
12973;BME280;6551;51.056;9.466;2023-04-24T03:24:09;96228.19;;;14.89;71.25
12973;BME280;6551;51.056;9.466;2023-04-24T03:26:36;96217.56;;;14.45;72.65
12973;BME280;6551;51.056;9.466;2023-04-24T03:29:03;96216.16;;;14.53;72.48
12973;BME280;6551;51.056;9.466;2023-04-24T03:31:30;96220.50;;;14.49;72.66
12973;BME280;6551;51.056;9.466;2023-04-24T03:33:56;96223.38;;;14.52;72.60
12973;BME280;6551;51.056;9.466;2023-04-24T03:36:21;96210.31;;;14.46;72.62
12973;BME280;6551;51.056;9.466;2023-04-24T03:38:47;96206.50;;;14.91;71.95
12973;BME280;6551;51.056;9.466;2023-04-24T03:41:16;96216.66;;;14.60;72.25
12973;BME280;6551;51.056;9.466;2023-04-24T03:43:42;96215.75;;;14.70;71.75
12973;BME280;6551;51.056;9.466;2023-04-24T03:46:08;96211.50;;;14.97;70.69
12973;BME280;6551;51.056;9.466;2023-04-24T03:48:35;96215.25;;;15.01;70.18
12973;BME280;6551;51.056;9.466;2023-04-24T03:51:01;96208.19;;;14.82;71.08
12973;BME280;6551;51.056;9.466;2023-04-24T03:53:27;96203.63;;;14.77;70.82
12973;BME280;6551;51.056;9.466;2023-04-24T03:55:53;96210.75;;;14.63;70.30
12973;BME280;6551;51.056;9.466;2023-04-24T03:58:19;96212.56;;;14.68;70.70
12973;BME280;6551;51.056;9.466;2023-04-24T04:00:44;96213.72;;;14.90;70.25
12973;BME280;6551;51.056;9.466;2023-04-24T04:03:13;96215.47;;;15.05;69.70
12973;BME280;6551;51.056;9.466;2023-04-24T04:05:40;96209.59;;;14.74;70.51
12973;BME280;6551;51.056;9.466;2023-04-24T04:08:06;96218.56;;;14.88;70.23
12973;BME280;6551;51.056;9.466;2023-04-24T04:10:32;96217.47;;;14.55;70.66
12973;BME280;6551;51.056;9.466;2023-04-24T04:12:58;96212.53;;;14.73;70.82
12973;BME280;6551;51.056;9.466;2023-04-24T04:15:25;96215.13;;;14.83;70.05
12973;BME280;6551;51.056;9.466;2023-04-24T04:17:51;96215.59;;;14.90;70.38
12973;BME280;6551;51.056;9.466;2023-04-24T04:20:19;96226.03;;;14.08;72.00
12973;BME280;6551;51.056;9.466;2023-04-24T04:22:44;96227.03;;;13.74;73.77
12973;BME280;6551;51.056;9.466;2023-04-24T04:25:10;96226.56;;;14.11;73.14
12973;BME280;6551;51.056;9.466;2023-04-24T04:27:38;96224.97;;;14.10;73.27
12973;BME280;6551;51.056;9.466;2023-04-24T04:30:07;96232.84;;;13.86;73.21
12973;BME280;6551;51.056;9.466;2023-04-24T04:32:36;96242.47;;;13.87;73.95
12973;BME280;6551;51.056;9.466;2023-04-24T04:35:04;96232.25;;;13.99;73.36
12973;BME280;6551;51.056;9.466;2023-04-24T04:37:34;96246.06;;;14.21;73.01
12973;BME280;6551;51.056;9.466;2023-04-24T04:40:00;96240.94;;;13.61;74.45
12973;BME280;6551;51.056;9.466;2023-04-24T04:42:26;96244.50;;;13.46;74.68
12973;BME280;6551;51.056;9.466;2023-04-24T04:44:53;96249.84;;;13.46;74.69
12973;BME280;6551;51.056;9.466;2023-04-24T04:47:21;96252.75;;;13.55;74.78
12973;BME280;6551;51.056;9.466;2023-04-24T04:49:50;96240.69;;;13.62;74.51
12973;BME280;6551;51.056;9.466;2023-04-24T04:52:18;96234.50;;;13.67;74.39
12973;BME280;6551;51.056;9.466;2023-04-24T04:54:43;96237.19;;;13.77;74.08
12973;BME280;6551;51.056;9.466;2023-04-24T04:57:10;96254.00;;;13.77;73.33
12973;BME280;6551;51.056;9.466;2023-04-24T04:59:36;96248.69;;;13.67;73.50
12973;BME280;6551;51.056;9.466;2023-04-24T05:02:04;96246.25;;;13.81;73.41
12973;BME280;6551;51.056;9.466;2023-04-24T05:04:31;96255.41;;;13.49;73.56
12973;BME280;6551;51.056;9.466;2023-04-24T05:06:56;96264.53;;;13.48;73.37
12973;BME280;6551;51.056;9.466;2023-04-24T05:09:23;96255.81;;;13.92;72.72
12973;BME280;6551;51.056;9.466;2023-04-24T05:11:53;96269.03;;;13.58;72.30
12973;BME280;6551;51.056;9.466;2023-04-24T05:14:19;96260.22;;;13.63;72.65
12973;BME280;6551;51.056;9.466;2023-04-24T05:16:45;96268.75;;;13.70;72.14
12973;BME280;6551;51.056;9.466;2023-04-24T05:19:10;96267.88;;;13.89;71.98
12973;BME280;6551;51.056;9.466;2023-04-24T05:21:41;96267.34;;;13.92;71.66
12973;BME280;6551;51.056;9.466;2023-04-24T05:24:07;96270.59;;;13.79;71.79
12973;BME280;6551;51.056;9.466;2023-04-24T05:26:34;96271.41;;;13.75;71.64
12973;BME280;6551;51.056;9.466;2023-04-24T05:29:03;96276.19;;;13.88;71.06
12973;BME280;6551;51.056;9.466;2023-04-24T05:31:31;96272.16;;;13.90;71.19
12973;BME280;6551;51.056;9.466;2023-04-24T05:33:56;96280.16;;;14.00;70.29
12973;BME280;6551;51.056;9.466;2023-04-24T05:36:22;96286.53;;;14.10;69.46
12973;BME280;6551;51.056;9.466;2023-04-24T05:38:47;96295.47;;;13.85;69.26
12973;BME280;6551;51.056;9.466;2023-04-24T05:41:14;96289.69;;;14.32;68.35
12973;BME280;6551;51.056;9.466;2023-04-24T05:43:41;96294.19;;;14.36;67.67
12973;BME280;6551;51.056;9.466;2023-04-24T05:46:07;96297.66;;;14.42;67.18
12973;BME280;6551;51.056;9.466;2023-04-24T05:48:32;96275.41;;;14.46;67.07
12973;BME280;6551;51.056;9.466;2023-04-24T05:51:00;96285.63;;;14.78;65.85
12973;BME280;6551;51.056;9.466;2023-04-24T05:53:25;96291.06;;;15.07;64.49
12973;BME280;6551;51.056;9.466;2023-04-24T05:55:51;96307.53;;;15.24;63.57
12973;BME280;6551;51.056;9.466;2023-04-24T05:58:17;96305.84;;;15.33;62.85
12973;BME280;6551;51.056;9.466;2023-04-24T06:00:44;96299.03;;;15.46;62.47
12973;BME280;6551;51.056;9.466;2023-04-24T06:03:12;96283.22;;;15.49;61.86
12973;BME280;6551;51.056;9.466;2023-04-24T06:05:38;96314.50;;;15.59;61.46
12973;BME280;6551;51.056;9.466;2023-04-24T06:08:04;96293.13;;;15.44;61.51
12973;BME280;6551;51.056;9.466;2023-04-24T06:10:29;96289.94;;;14.79;61.81
12973;BME280;6551;51.056;9.466;2023-04-24T06:12:56;96304.69;;;14.77;62.22
12973;BME280;6551;51.056;9.466;2023-04-24T06:15:30;96293.59;;;14.88;62.43
12973;BME280;6551;51.056;9.466;2023-04-24T06:17:57;96315.69;;;15.09;62.23
12973;BME280;6551;51.056;9.466;2023-04-24T06:20:23;96304.34;;;14.39;60.49
12973;BME280;6551;51.056;9.466;2023-04-24T06:22:50;96310.88;;;14.08;61.68
12973;BME280;6551;51.056;9.466;2023-04-24T06:25:16;96316.00;;;14.04;63.29
12973;BME280;6551;51.056;9.466;2023-04-24T06:27:42;96321.13;;;13.96;63.94
12973;BME280;6551;51.056;9.466;2023-04-24T06:30:11;96313.44;;;13.64;64.28
12973;BME280;6551;51.056;9.466;2023-04-24T06:32:36;96325.78;;;13.30;63.74
12973;BME280;6551;51.056;9.466;2023-04-24T06:35:04;96322.59;;;13.13;64.51
12973;BME280;6551;51.056;9.466;2023-04-24T06:37:30;96321.78;;;13.12;64.29
12973;BME280;6551;51.056;9.466;2023-04-24T06:39:55;96320.94;;;13.47;64.54
12973;BME280;6551;51.056;9.466;2023-04-24T06:42:22;96314.63;;;14.12;63.62
12973;BME280;6551;51.056;9.466;2023-04-24T06:44:51;96318.13;;;14.67;62.58
12973;BME280;6551;51.056;9.466;2023-04-24T06:47:17;96322.34;;;14.24;61.44
12973;BME280;6551;51.056;9.466;2023-04-24T06:49:43;96333.09;;;14.08;62.18
12973;BME280;6551;51.056;9.466;2023-04-24T06:52:09;96325.84;;;14.14;61.15
12973;BME280;6551;51.056;9.466;2023-04-24T06:54:35;96320.34;;;13.80;61.47
12973;BME280;6551;51.056;9.466;2023-04-24T06:57:01;96326.22;;;13.87;62.07
12973;BME280;6551;51.056;9.466;2023-04-24T06:59:30;96322.16;;;14.00;61.71
12973;BME280;6551;51.056;9.466;2023-04-24T07:01:57;96328.41;;;13.70;61.80
12973;BME280;6551;51.056;9.466;2023-04-24T07:04:24;96326.50;;;13.81;61.45
12973;BME280;6551;51.056;9.466;2023-04-24T07:06:50;96320.69;;;13.54;61.97
12973;BME280;6551;51.056;9.466;2023-04-24T07:09:17;96327.41;;;13.21;61.62
12973;BME280;6551;51.056;9.466;2023-04-24T07:11:45;96330.34;;;13.29;61.99
12973;BME280;6551;51.056;9.466;2023-04-24T07:14:11;96338.97;;;14.16;61.44
12973;BME280;6551;51.056;9.466;2023-04-24T07:16:37;96311.66;;;14.73;59.25
12973;BME280;6551;51.056;9.466;2023-04-24T07:19:04;96325.19;;;14.96;58.04
12973;BME280;6551;51.056;9.466;2023-04-24T07:21:30;96338.97;;;15.13;57.89
12973;BME280;6551;51.056;9.466;2023-04-24T07:23:59;96339.03;;;15.08;56.89
12973;BME280;6551;51.056;9.466;2023-04-24T07:26:27;96346.34;;;14.54;56.89
12973;BME280;6551;51.056;9.466;2023-04-24T07:28:56;96345.34;;;14.84;58.05
12973;BME280;6551;51.056;9.466;2023-04-24T07:31:23;96341.66;;;15.18;57.33
12973;BME280;6551;51.056;9.466;2023-04-24T07:33:50;96344.47;;;14.98;56.08
12973;BME280;6551;51.056;9.466;2023-04-24T07:36:16;96341.22;;;15.01;56.28
12973;BME280;6551;51.056;9.466;2023-04-24T07:38:48;96349.84;;;14.44;56.82
12973;BME280;6551;51.056;9.466;2023-04-24T07:41:14;96362.53;;;14.14;57.37
12973;BME280;6551;51.056;9.466;2023-04-24T07:43:41;96369.00;;;13.97;58.36
12973;BME280;6551;51.056;9.466;2023-04-24T07:46:08;96361.50;;;14.04;59.64
12973;BME280;6551;51.056;9.466;2023-04-24T07:48:36;96360.53;;;13.60;59.81
12973;BME280;6551;51.056;9.466;2023-04-24T07:51:02;96364.50;;;13.88;60.28
12973;BME280;6551;51.056;9.466;2023-04-24T07:53:28;96367.72;;;13.80;60.36
12973;BME280;6551;51.056;9.466;2023-04-24T07:55:55;96366.94;;;13.64;60.38
12973;BME280;6551;51.056;9.466;2023-04-24T07:58:22;96369.63;;;13.29;60.80
12973;BME280;6551;51.056;9.466;2023-04-24T08:00:49;96368.00;;;13.73;61.03
12973;BME280;6551;51.056;9.466;2023-04-24T08:03:14;96368.81;;;13.38;60.46
12973;BME280;6551;51.056;9.466;2023-04-24T08:05:43;96362.66;;;13.68;60.61
12973;BME280;6551;51.056;9.466;2023-04-24T08:08:09;96373.88;;;14.64;59.54
12973;BME280;6551;51.056;9.466;2023-04-24T08:10:37;96351.69;;;14.54;57.49
12973;BME280;6551;51.056;9.466;2023-04-24T08:13:04;96351.84;;;15.16;56.86
12973;BME280;6551;51.056;9.466;2023-04-24T08:15:30;96357.19;;;15.55;55.41
12973;BME280;6551;51.056;9.466;2023-04-24T08:17:55;96367.81;;;15.94;55.25
12973;BME280;6551;51.056;9.466;2023-04-24T08:20:22;96361.94;;;15.92;54.97
12973;BME280;6551;51.056;9.466;2023-04-24T08:22:47;96366.03;;;15.56;54.92
12973;BME280;6551;51.056;9.466;2023-04-24T08:25:14;96360.72;;;15.51;56.76
12973;BME280;6551;51.056;9.466;2023-04-24T08:27:40;96376.88;;;14.53;57.31
12973;BME280;6551;51.056;9.466;2023-04-24T08:30:07;96360.00;;;14.57;57.76
12973;BME280;6551;51.056;9.466;2023-04-24T08:32:34;96370.22;;;14.30;57.96
12973;BME280;6551;51.056;9.466;2023-04-24T08:34:59;96372.09;;;14.94;57.49
12973;BME280;6551;51.056;9.466;2023-04-24T08:37:27;96360.88;;;15.26;56.88
12973;BME280;6551;51.056;9.466;2023-04-24T08:39:53;96356.72;;;15.48;56.28
12973;BME280;6551;51.056;9.466;2023-04-24T08:42:21;96352.19;;;15.72;55.33
12973;BME280;6551;51.056;9.466;2023-04-24T08:44:49;96374.34;;;15.83;54.92
12973;BME280;6551;51.056;9.466;2023-04-24T08:47:15;96373.25;;;15.60;55.30
12973;BME280;6551;51.056;9.466;2023-04-24T08:49:41;96370.53;;;15.65;55.38
12973;BME280;6551;51.056;9.466;2023-04-24T08:52:09;96379.22;;;16.10;55.48
12973;BME280;6551;51.056;9.466;2023-04-24T08:54:41;96378.09;;;15.87;55.36
12973;BME280;6551;51.056;9.466;2023-04-24T08:57:09;96402.88;;;15.79;55.19
12973;BME280;6551;51.056;9.466;2023-04-24T08:59:38;96383.56;;;15.43;55.67
12973;BME280;6551;51.056;9.466;2023-04-24T09:02:05;96388.78;;;14.81;55.71
12973;BME280;6551;51.056;9.466;2023-04-24T09:04:33;96403.97;;;14.46;57.73
12973;BME280;6551;51.056;9.466;2023-04-24T09:06:59;96402.16;;;14.12;58.35
12973;BME280;6551;51.056;9.466;2023-04-24T09:09:30;96403.31;;;13.45;59.65
12973;BME280;6551;51.056;9.466;2023-04-24T09:11:59;96415.59;;;13.31;60.34
12973;BME280;6551;51.056;9.466;2023-04-24T09:14:26;96419.59;;;13.13;61.68
12973;BME280;6551;51.056;9.466;2023-04-24T09:16:53;96425.13;;;12.86;61.51
12973;BME280;6551;51.056;9.466;2023-04-24T09:19:19;96418.09;;;12.60;61.81
12973;BME280;6551;51.056;9.466;2023-04-24T09:21:48;96420.59;;;12.97;62.22
12973;BME280;6551;51.056;9.466;2023-04-24T09:24:20;96416.13;;;13.13;62.53
12973;BME280;6551;51.056;9.466;2023-04-24T09:26:49;96425.72;;;13.09;61.04
12973;BME280;6551;51.056;9.466;2023-04-24T09:29:21;96421.97;;;13.05;61.71
12973;BME280;6551;51.056;9.466;2023-04-24T09:31:48;96428.31;;;12.78;61.95
12973;BME280;6551;51.056;9.466;2023-04-24T09:34:14;96437.56;;;12.61;62.33
12973;BME280;6551;51.056;9.466;2023-04-24T09:36:42;96434.66;;;12.57;62.78
12973;BME280;6551;51.056;9.466;2023-04-24T09:39:15;96442.88;;;12.46;62.74
12973;BME280;6551;51.056;9.466;2023-04-24T09:41:54;96433.03;;;12.61;62.20
12973;BME280;6551;51.056;9.466;2023-04-24T09:44:25;96432.72;;;12.48;62.60
12973;BME280;6551;51.056;9.466;2023-04-24T09:47:00;96447.47;;;12.60;63.22
12973;BME280;6551;51.056;9.466;2023-04-24T09:49:30;96446.06;;;12.43;63.00
12973;BME280;6551;51.056;9.466;2023-04-24T09:52:10;96445.56;;;12.56;62.96
12973;BME280;6551;51.056;9.466;2023-04-24T09:54:39;96432.69;;;12.38;62.83
12973;BME280;6551;51.056;9.466;2023-04-24T09:57:09;96445.03;;;12.54;62.18
12973;BME280;6551;51.056;9.466;2023-04-24T09:59:34;96448.31;;;12.76;62.95
12973;BME280;6551;51.056;9.466;2023-04-24T10:02:01;96437.41;;;12.82;62.60
12973;BME280;6551;51.056;9.466;2023-04-24T10:04:28;96438.69;;;12.75;63.39
12973;BME280;6551;51.056;9.466;2023-04-24T10:06:56;96443.41;;;12.53;63.33
12973;BME280;6551;51.056;9.466;2023-04-24T10:09:26;96439.28;;;12.92;63.44
12973;BME280;6551;51.056;9.466;2023-04-24T10:11:54;96429.13;;;12.94;62.78
12973;BME280;6551;51.056;9.466;2023-04-24T10:14:25;96435.69;;;13.43;62.14
12973;BME280;6551;51.056;9.466;2023-04-24T10:16:54;96441.84;;;13.54;62.42
12973;BME280;6551;51.056;9.466;2023-04-24T10:19:21;96436.72;;;13.53;61.27
12973;BME280;6551;51.056;9.466;2023-04-24T10:21:50;96439.16;;;13.49;61.53
12973;BME280;6551;51.056;9.466;2023-04-24T10:24:19;96433.00;;;13.79;60.30
12973;BME280;6551;51.056;9.466;2023-04-24T10:26:49;96426.56;;;13.75;60.08
12973;BME280;6551;51.056;9.466;2023-04-24T10:29:17;96433.78;;;14.04;59.88
12973;BME280;6551;51.056;9.466;2023-04-24T10:31:45;96438.03;;;14.16;59.25
12973;BME280;6551;51.056;9.466;2023-04-24T10:34:13;96430.84;;;13.86;59.73
12973;BME280;6551;51.056;9.466;2023-04-24T10:36:46;96426.84;;;13.73;60.18
12973;BME280;6551;51.056;9.466;2023-04-24T10:39:14;96437.53;;;13.73;61.54
12973;BME280;6551;51.056;9.466;2023-04-24T10:41:44;96443.38;;;13.10;62.55
12973;BME280;6551;51.056;9.466;2023-04-24T10:44:14;96451.00;;;12.81;64.77
12973;BME280;6551;51.056;9.466;2023-04-24T10:46:45;96463.91;;;12.37;68.20
12973;BME280;6551;51.056;9.466;2023-04-24T10:49:15;96469.84;;;12.49;70.73
12973;BME280;6551;51.056;9.466;2023-04-24T10:51:54;96471.16;;;12.47;72.04
12973;BME280;6551;51.056;9.466;2023-04-24T10:54:34;96468.47;;;12.47;73.01
12973;BME280;6551;51.056;9.466;2023-04-24T11:00:21;96479.31;;;12.77;72.56
12973;BME280;6551;51.056;9.466;2023-04-24T11:02:48;96475.28;;;12.22;74.08
12973;BME280;6551;51.056;9.466;2023-04-24T11:05:18;96481.81;;;12.47;74.98
12973;BME280;6551;51.056;9.466;2023-04-24T11:08:16;96481.13;;;12.14;74.09
12973;BME280;6551;51.056;9.466;2023-04-24T11:11:35;96490.94;;;12.04;75.83
12973;BME280;6551;51.056;9.466;2023-04-24T11:16:42;96500.66;;;11.56;79.24
12973;BME280;6551;51.056;9.466;2023-04-24T11:24:31;96508.00;;;12.08;80.00
12973;BME280;6551;51.056;9.466;2023-04-24T11:27:11;96514.94;;;12.04;78.40
12973;BME280;6551;51.056;9.466;2023-04-24T11:29:44;96515.94;;;12.35;78.11
12973;BME280;6551;51.056;9.466;2023-04-24T11:32:39;96520.13;;;12.20;75.03
12973;BME280;6551;51.056;9.466;2023-04-24T11:35:26;96532.56;;;12.05;72.02
12973;BME280;6551;51.056;9.466;2023-04-24T11:37:54;96541.41;;;11.79;71.40
12973;BME280;6551;51.056;9.466;2023-04-24T11:40:22;96542.03;;;11.64;70.96
12973;BME280;6551;51.056;9.466;2023-04-24T11:42:55;96550.25;;;11.57;70.36
12973;BME280;6551;51.056;9.466;2023-04-24T11:45:30;96548.44;;;11.63;71.34
12973;BME280;6551;51.056;9.466;2023-04-24T11:47:57;96560.41;;;11.60;71.92
12973;BME280;6551;51.056;9.466;2023-04-24T11:50:26;96568.56;;;11.76;70.75
12973;BME280;6551;51.056;9.466;2023-04-24T11:52:53;96558.25;;;11.57;69.21
12973;BME280;6551;51.056;9.466;2023-04-24T11:57:50;96567.72;;;11.70;68.77
12973;BME280;6551;51.056;9.466;2023-04-24T12:00:28;96563.09;;;11.39;68.67
12973;BME280;6551;51.056;9.466;2023-04-24T12:03:11;96580.63;;;11.56;69.55
12973;BME280;6551;51.056;9.466;2023-04-24T12:05:38;96579.56;;;11.09;69.79
12973;BME280;6551;51.056;9.466;2023-04-24T12:08:04;96586.34;;;11.43;71.36
12973;BME280;6551;51.056;9.466;2023-04-24T12:10:33;96588.13;;;11.33;70.95
12973;BME280;6551;51.056;9.466;2023-04-24T12:12:59;96549.19;;;11.32;70.40
12973;BME280;6551;51.056;9.466;2023-04-24T12:15:27;96582.78;;;11.33;70.58
12973;BME280;6551;51.056;9.466;2023-04-24T12:17:55;96588.72;;;11.40;70.12
12973;BME280;6551;51.056;9.466;2023-04-24T12:20:31;96608.22;;;11.45;70.75
12973;BME280;6551;51.056;9.466;2023-04-24T12:23:00;96591.78;;;11.53;70.67
12973;BME280;6551;51.056;9.466;2023-04-24T12:25:33;96609.44;;;11.33;69.58
12973;BME280;6551;51.056;9.466;2023-04-24T12:30:39;96609.19;;;10.91;70.45
12973;BME280;6551;51.056;9.466;2023-04-24T12:33:05;96613.06;;;11.70;69.66
12973;BME280;6551;51.056;9.466;2023-04-24T12:35:33;96608.69;;;11.64;68.63
12973;BME280;6551;51.056;9.466;2023-04-24T12:38:10;96597.44;;;11.57;68.77
12973;BME280;6551;51.056;9.466;2023-04-24T12:40:38;96610.50;;;11.58;68.47
12973;BME280;6551;51.056;9.466;2023-04-24T12:43:18;96626.53;;;11.63;68.16
12973;BME280;6551;51.056;9.466;2023-04-24T12:45:45;96610.94;;;11.72;67.76
12973;BME280;6551;51.056;9.466;2023-04-24T12:48:12;96625.84;;;11.46;67.68
12973;BME280;6551;51.056;9.466;2023-04-24T12:50:41;96630.00;;;11.37;67.71
12973;BME280;6551;51.056;9.466;2023-04-24T12:53:07;96629.66;;;11.55;68.98
12973;BME280;6551;51.056;9.466;2023-04-24T12:55:36;96632.47;;;11.44;67.96
12973;BME280;6551;51.056;9.466;2023-04-24T12:58:03;96629.88;;;11.70;67.54
12973;BME280;6551;51.056;9.466;2023-04-24T13:00:29;96633.78;;;11.90;67.73
12973;BME280;6551;51.056;9.466;2023-04-24T13:02:55;96637.41;;;12.05;67.32
12973;BME280;6551;51.056;9.466;2023-04-24T13:05:21;96642.19;;;11.77;66.70
12973;BME280;6551;51.056;9.466;2023-04-24T13:07:46;96637.88;;;11.70;67.17
12973;BME280;6551;51.056;9.466;2023-04-24T13:10:12;96635.88;;;12.14;66.44
12973;BME280;6551;51.056;9.466;2023-04-24T13:12:39;96642.50;;;12.07;66.68
12973;BME280;6551;51.056;9.466;2023-04-24T13:15:06;96630.22;;;12.06;66.07
12973;BME280;6551;51.056;9.466;2023-04-24T13:17:32;96644.63;;;12.37;65.99
12973;BME280;6551;51.056;9.466;2023-04-24T13:19:59;96652.53;;;12.58;66.06
12973;BME280;6551;51.056;9.466;2023-04-24T13:22:25;96643.41;;;12.49;65.61
12973;BME280;6551;51.056;9.466;2023-04-24T13:24:51;96645.16;;;12.70;64.54
12973;BME280;6551;51.056;9.466;2023-04-24T13:27:17;96645.41;;;12.32;65.94
12973;BME280;6551;51.056;9.466;2023-04-24T13:29:44;96654.44;;;12.63;64.87